createdAt,value
2023-04-16T00:01:34.846Z,7.05
2023-04-16T00:04:33.883Z,10.80
2023-04-16T00:07:33.044Z,8.43
2023-04-16T00:10:31.874Z,7.90
2023-04-16T00:13:30.923Z,7.38
2023-04-16T00:16:29.934Z,8.35
2023-04-16T00:19:29.082Z,6.72
2023-04-16T00:22:28.006Z,6.07
2023-04-16T00:25:27.274Z,6.10
2023-04-16T00:28:26.272Z,8.77
2023-04-16T00:31:34.656Z,8.00
2023-04-16T00:34:33.557Z,9.10
2023-04-16T00:37:32.723Z,8.77
2023-04-16T00:40:32.425Z,10.48
2023-04-16T00:43:32.938Z,5.72
2023-04-16T00:46:32.838Z,10.43
2023-04-16T00:49:32.957Z,7.43
2023-04-16T00:52:33.951Z,7.22
2023-04-16T00:55:33.441Z,9.50
2023-04-16T00:58:33.139Z,5.90
2023-04-16T01:01:32.302Z,7.55
2023-04-16T01:04:31.891Z,8.50
2023-04-16T01:07:31.095Z,7.65
2023-04-16T01:10:30.094Z,4.82
2023-04-16T01:13:29.285Z,10.75
2023-04-16T01:16:28.156Z,8.18
2023-04-16T01:19:27.598Z,8.20
2023-04-16T01:22:26.434Z,9.55
2023-04-16T01:25:25.618Z,11.35
2023-04-16T01:28:24.837Z,10.95
2023-04-16T01:31:24.057Z,15.35
2023-04-16T01:34:23.218Z,9.32
2023-04-16T01:37:22.377Z,13.82
2023-04-16T01:40:21.358Z,16.00
2023-04-16T01:43:20.706Z,12.73
2023-04-16T01:46:39.245Z,17.55
2023-04-16T01:49:38.199Z,11.50
2023-04-16T01:52:37.335Z,16.08
2023-04-16T01:55:36.322Z,14.75
2023-04-16T01:58:35.927Z,11.40
2023-04-16T02:01:35.036Z,11.75
2023-04-16T02:04:34.399Z,12.13
2023-04-16T02:07:51.047Z,14.25
2023-04-16T02:10:50.733Z,9.35
2023-04-16T02:13:48.621Z,9.38
2023-04-16T02:16:47.312Z,14.10
2023-04-16T02:19:45.086Z,12.77
2023-04-16T02:22:44.058Z,15.55
2023-04-16T02:25:45.399Z,12.80
2023-04-16T02:28:43.283Z,9.40
2023-04-16T02:31:41.242Z,12.00
2023-04-16T02:34:40.790Z,12.77
2023-04-16T02:37:41.230Z,18.13
2023-04-16T02:40:39.152Z,9.93
2023-04-16T02:43:36.989Z,16.10
2023-04-16T02:46:34.885Z,17.20
2023-04-16T02:49:32.774Z,22.15
2023-04-16T02:52:30.685Z,17.98
2023-04-16T02:55:30.264Z,18.50
2023-04-16T02:58:28.266Z,15.90
2023-04-16T03:01:26.191Z,21.33
2023-04-16T03:04:24.361Z,18.27
2023-04-16T03:07:22.328Z,17.52
2023-04-16T03:10:20.247Z,21.50
2023-04-16T03:13:18.182Z,13.95
2023-04-16T03:16:16.223Z,16.52
2023-04-16T03:19:14.217Z,18.95
2023-04-16T03:22:12.149Z,25.67
2023-04-16T03:25:10.445Z,27.10
2023-04-16T03:28:08.405Z,20.63
2023-04-16T03:31:06.311Z,17.17
2023-04-16T03:34:04.584Z,25.42
2023-04-16T03:37:02.429Z,25.88
2023-04-16T03:40:00.612Z,30.88
2023-04-16T03:42:58.413Z,22.50
2023-04-16T03:45:56.317Z,22.75
2023-04-16T03:48:54.293Z,22.85
2023-04-16T03:51:52.259Z,30.40
2023-04-16T03:54:50.101Z,27.83
2023-04-16T03:57:48.013Z,30.85
2023-04-16T04:00:45.866Z,16.65
2023-04-16T04:03:44.069Z,17.48
2023-04-16T04:06:42.472Z,26.27
2023-04-16T04:09:40.434Z,18.65
2023-04-16T04:12:38.179Z,17.77
2023-04-16T04:15:36.255Z,17.92
2023-04-16T04:18:34.074Z,24.33
2023-04-16T04:21:32.608Z,19.20
2023-04-16T04:24:30.477Z,21.00
2023-04-16T04:27:28.430Z,19.20
2023-04-16T04:30:26.428Z,18.85
2023-04-16T04:33:24.569Z,17.40
2023-04-16T04:36:22.621Z,19.50
2023-04-16T04:39:22.311Z,15.57
2023-04-16T04:42:21.214Z,12.80
2023-04-16T04:45:19.256Z,14.50
2023-04-16T04:48:17.290Z,16.15
2023-04-16T04:51:15.297Z,21.20
2023-04-16T04:54:13.136Z,20.77
2023-04-16T04:57:11.556Z,18.52
2023-04-16T05:00:10.434Z,16.00
2023-04-16T05:03:12.008Z,18.77
2023-04-16T05:06:10.126Z,28.80
2023-04-16T05:09:12.098Z,15.75
2023-04-16T05:12:10.086Z,11.30
2023-04-16T05:15:09.687Z,22.63
2023-04-16T05:18:08.182Z,11.88
2023-04-16T05:21:06.422Z,17.83
2023-04-16T05:24:04.240Z,16.33
2023-04-16T05:27:02.143Z,13.07
2023-04-16T05:30:00.228Z,15.48
2023-04-16T05:32:58.471Z,16.20
2023-04-16T05:35:56.555Z,10.57
2023-04-16T05:38:54.576Z,13.50
2023-04-16T05:41:52.414Z,18.23
2023-04-16T05:44:51.948Z,25.85
2023-04-16T05:47:49.937Z,54.70
2023-04-16T05:50:47.899Z,34.78
2023-04-16T05:53:46.367Z,29.42
2023-04-16T05:56:44.446Z,14.77
2023-04-16T05:59:42.320Z,20.63
2023-04-16T06:02:40.648Z,15.05
2023-04-16T06:05:38.634Z,19.70
2023-04-16T06:08:36.568Z,24.10
2023-04-16T06:11:35.883Z,19.17
2023-04-16T06:14:34.377Z,21.27
2023-04-16T06:17:32.372Z,25.75
2023-04-16T06:20:30.342Z,20.83
2023-04-16T06:23:28.135Z,17.13
2023-04-16T06:26:26.413Z,21.20
2023-04-16T06:29:33.691Z,15.52
2023-04-16T06:32:38.944Z,23.70
2023-04-16T06:35:36.762Z,15.20
2023-04-16T06:38:34.655Z,14.48
2023-04-16T06:41:32.801Z,17.77
2023-04-16T06:44:30.798Z,20.08
2023-04-16T06:47:28.706Z,21.75
2023-04-16T06:50:28.895Z,19.13
2023-04-16T06:53:26.911Z,18.45
2023-04-16T06:56:28.090Z,19.67
2023-04-16T06:59:26.127Z,20.67
2023-04-16T07:02:24.887Z,22.08
2023-04-16T07:05:22.956Z,19.30
2023-04-16T07:08:20.921Z,21.20
2023-04-16T07:11:19.927Z,24.85
2023-04-16T07:14:17.970Z,24.80
2023-04-16T07:17:15.825Z,24.85
2023-04-16T07:20:13.771Z,23.15
2023-04-16T07:23:11.681Z,19.83
2023-04-16T07:26:11.169Z,23.48
2023-04-16T07:29:09.322Z,19.88
2023-04-16T07:32:09.013Z,23.45
2023-04-16T07:35:07.481Z,23.67
2023-04-16T07:38:05.434Z,21.33
2023-04-16T07:41:03.315Z,19.60
2023-04-16T07:44:01.605Z,22.83
2023-04-16T07:46:59.464Z,20.40
2023-04-16T07:49:57.843Z,19.52
2023-04-16T07:52:55.840Z,16.42
2023-04-16T07:55:53.824Z,23.60
2023-04-16T07:58:51.631Z,16.70
2023-04-16T08:01:49.760Z,17.13
2023-04-16T08:04:48.212Z,17.92
2023-04-16T08:07:46.482Z,12.30
2023-04-16T08:10:44.756Z,17.40
2023-04-16T08:13:43.259Z,14.00
2023-04-16T08:16:41.841Z,13.07
2023-04-16T08:19:39.992Z,20.05
2023-04-16T08:22:38.507Z,17.33
2023-04-16T08:25:36.675Z,16.17
2023-04-16T08:28:34.983Z,12.20
2023-04-16T08:31:33.643Z,14.20
2023-04-16T08:34:31.501Z,17.52
2023-04-16T08:37:29.651Z,14.52
2023-04-16T08:40:31.229Z,11.60
2023-04-16T08:43:34.162Z,15.15
2023-04-16T08:46:33.928Z,12.40
2023-04-16T08:49:36.973Z,15.38
2023-04-16T08:52:38.616Z,14.52
2023-04-16T08:55:40.016Z,13.57
2023-04-16T08:58:39.631Z,13.13
2023-04-16T09:01:42.241Z,11.82
2023-04-16T09:04:42.060Z,14.20
2023-04-16T09:07:40.573Z,17.67
2023-04-16T09:10:38.593Z,10.30
2023-04-16T09:13:38.049Z,12.77
2023-04-16T09:16:36.204Z,16.60
2023-04-16T09:19:34.314Z,14.60
2023-04-16T09:22:32.303Z,13.63
2023-04-16T09:25:36.576Z,11.05
2023-04-16T09:28:43.413Z,13.32
2023-04-16T09:31:41.586Z,13.65
2023-04-16T09:34:56.146Z,16.15
2023-04-16T09:37:58.663Z,11.95
2023-04-16T09:41:11.932Z,14.18
2023-04-16T09:44:09.846Z,13.52
2023-04-16T09:47:09.750Z,19.00
2023-04-16T09:50:11.943Z,11.73
2023-04-16T09:53:10.611Z,16.75
2023-04-16T09:56:09.252Z,17.15
2023-04-16T09:59:07.186Z,15.02
2023-04-16T10:02:14.319Z,18.58
2023-04-16T10:05:19.188Z,18.70
2023-04-16T10:08:17.958Z,12.07
2023-04-16T10:11:17.876Z,13.45
2023-04-16T10:14:16.144Z,21.55
2023-04-16T10:17:14.943Z,17.67
2023-04-16T10:20:12.901Z,18.65
2023-04-16T10:23:10.875Z,15.73
2023-04-16T10:26:08.902Z,23.17
2023-04-16T10:29:08.081Z,17.33
2023-04-16T10:32:08.752Z,14.20
2023-04-16T10:35:07.452Z,13.82
2023-04-16T10:38:25.185Z,23.05
2023-04-16T10:41:23.168Z,13.52
2023-04-16T10:44:21.170Z,20.05
2023-04-16T10:47:19.329Z,14.15
2023-04-16T10:50:17.734Z,16.30
2023-04-16T10:53:21.752Z,38.40
2023-04-16T10:56:29.164Z,12.90
2023-04-16T10:59:32.540Z,13.13
2023-04-16T11:02:30.710Z,9.93
2023-04-16T11:05:47.512Z,12.70
2023-04-16T11:09:08.182Z,9.32
2023-04-16T11:12:08.839Z,12.63
2023-04-16T11:15:09.966Z,14.40
2023-04-16T11:18:07.955Z,10.27
2023-04-16T11:21:10.944Z,24.63
2023-04-16T11:24:13.576Z,33.75
2023-04-16T11:27:15.156Z,27.40
2023-04-16T11:30:14.361Z,17.88
2023-04-16T11:33:14.104Z,20.02
2023-04-16T11:36:11.949Z,20.48
2023-04-16T11:39:10.052Z,25.38
2023-04-16T11:42:08.001Z,17.17
2023-04-16T11:45:06.353Z,17.20
2023-04-16T11:48:04.315Z,18.20
2023-04-16T11:51:05.329Z,12.18
2023-04-16T11:54:03.350Z,13.60
2023-04-16T11:57:01.587Z,10.82
2023-04-16T12:00:02.315Z,12.20
2023-04-16T12:03:01.275Z,14.32
2023-04-16T12:06:09.684Z,19.25
2023-04-16T12:09:23.314Z,20.20
2023-04-16T12:12:40.922Z,31.10
2023-04-16T12:16:02.747Z,12.43
2023-04-16T12:19:02.684Z,16.23
2023-04-16T12:22:02.127Z,13.43
2023-04-16T12:25:01.206Z,23.05
2023-04-16T12:27:59.230Z,16.90
2023-04-16T12:30:57.556Z,19.38
2023-04-16T12:34:03.937Z,13.73
2023-04-16T12:37:09.917Z,33.60
2023-04-16T12:40:09.262Z,25.88
2023-04-16T12:43:07.700Z,21.70
2023-04-16T12:46:07.372Z,17.13
2023-04-16T12:49:05.358Z,16.27
2023-04-16T12:52:04.332Z,14.52
2023-04-16T12:55:03.699Z,14.48
2023-04-16T12:58:01.728Z,15.23
2023-04-16T13:01:00.382Z,15.73
2023-04-16T13:04:13.673Z,15.82
2023-04-16T13:07:11.701Z,16.63
2023-04-16T13:10:10.361Z,16.80
2023-04-16T13:13:08.339Z,13.98
2023-04-16T13:16:09.315Z,20.75
2023-04-16T13:19:07.123Z,24.30
2023-04-16T13:22:05.077Z,22.20
2023-04-16T13:25:02.892Z,23.38
2023-04-16T13:28:01.360Z,25.65
2023-04-16T13:30:59.361Z,26.98
2023-04-16T13:33:57.405Z,25.42
2023-04-16T13:36:55.253Z,19.67
2023-04-16T13:39:53.220Z,17.70
2023-04-16T13:42:51.144Z,15.45
2023-04-16T13:45:49.328Z,15.10
2023-04-16T13:48:47.464Z,17.90
2023-04-16T13:51:45.684Z,15.15
2023-04-16T13:54:43.524Z,20.88
2023-04-16T13:57:42.037Z,18.92
2023-04-16T14:00:39.894Z,22.60
2023-04-16T14:03:39.440Z,18.27
2023-04-16T14:06:37.304Z,17.75
2023-04-16T14:09:35.204Z,15.52
2023-04-16T14:12:33.041Z,20.55
2023-04-16T14:15:31.099Z,15.77
2023-04-16T14:18:28.928Z,18.10
2023-04-16T14:21:27.674Z,18.52
2023-04-16T14:24:25.429Z,20.55
2023-04-16T14:27:23.541Z,20.42
2023-04-16T14:30:21.548Z,23.42
2023-04-16T14:33:19.480Z,20.27
2023-04-16T14:36:17.596Z,19.83
2023-04-16T14:39:16.049Z,22.23
2023-04-16T14:42:14.056Z,25.00
2023-04-16T14:45:12.138Z,19.38
2023-04-16T14:48:10.018Z,28.95
2023-04-16T14:51:08.005Z,18.40
2023-04-16T14:54:05.961Z,21.08
2023-04-16T14:57:04.106Z,13.23
2023-04-16T15:00:02.379Z,16.00
2023-04-16T15:03:00.523Z,13.18
2023-04-16T15:05:58.850Z,19.08
2023-04-16T15:08:58.244Z,13.93
2023-04-16T15:11:56.083Z,15.15
2023-04-16T15:14:53.995Z,12.95
2023-04-16T15:17:52.432Z,15.30
2023-04-16T15:20:52.070Z,16.48
2023-04-16T15:23:50.219Z,14.15
2023-04-16T15:26:48.124Z,11.60
2023-04-16T15:29:47.245Z,15.20
2023-04-16T15:32:46.145Z,14.38
2023-04-16T15:35:46.650Z,14.45
2023-04-16T15:38:44.823Z,16.55
2023-04-16T15:41:57.563Z,12.40
2023-04-16T15:44:58.941Z,15.50
2023-04-16T15:47:57.051Z,12.00
2023-04-16T15:50:55.704Z,19.52
2023-04-16T15:53:54.028Z,13.88
2023-04-16T15:56:52.523Z,15.10
2023-04-16T16:00:05.402Z,13.82
2023-04-16T16:03:05.091Z,15.23
2023-04-16T16:06:05.494Z,14.65
2023-04-16T16:09:03.429Z,15.82
2023-04-16T16:12:01.378Z,17.38
2023-04-16T16:14:59.579Z,12.30
2023-04-16T16:17:59.179Z,19.05
2023-04-16T16:20:58.385Z,12.70
2023-04-16T16:23:56.635Z,12.02
2023-04-16T16:26:54.868Z,12.85
2023-04-16T16:29:52.848Z,11.18
2023-04-16T16:32:51.425Z,12.25
2023-04-16T16:35:49.470Z,13.70
2023-04-16T16:38:48.021Z,14.27
2023-04-16T16:41:46.408Z,12.95
2023-04-16T16:44:44.420Z,11.43
2023-04-16T16:47:43.193Z,12.73
2023-04-16T16:50:41.839Z,12.80
2023-04-16T16:53:39.672Z,15.10
2023-04-16T16:56:37.884Z,12.07
2023-04-16T16:59:35.733Z,15.02
2023-04-16T17:02:34.810Z,17.15
2023-04-16T17:05:33.378Z,11.35
2023-04-16T17:08:31.920Z,16.80
2023-04-16T17:11:30.004Z,17.75
2023-04-16T17:14:27.994Z,17.77
2023-04-16T17:17:27.475Z,14.30
2023-04-16T17:20:25.715Z,13.30
2023-04-16T17:23:23.530Z,16.52
2023-04-16T17:26:21.637Z,17.83
2023-04-16T17:29:20.647Z,15.05
2023-04-16T17:32:19.044Z,15.32
2023-04-16T17:35:16.930Z,13.35
2023-04-16T17:38:14.926Z,17.02
2023-04-16T17:41:13.247Z,13.82
2023-04-16T17:44:11.921Z,11.82
2023-04-16T17:47:10.070Z,10.00
2023-04-16T17:50:09.829Z,14.70
2023-04-16T17:53:08.043Z,13.68
2023-04-16T17:56:06.166Z,13.77
2023-04-16T17:59:04.115Z,15.45
2023-04-16T18:02:02.228Z,14.57
2023-04-16T18:05:00.163Z,14.20
2023-04-16T18:07:58.657Z,12.38
2023-04-16T18:10:57.345Z,13.48
2023-04-16T18:13:55.484Z,14.55
2023-04-16T18:16:53.393Z,14.43
2023-04-16T18:19:53.164Z,11.30
2023-04-16T18:22:51.162Z,12.75
2023-04-16T18:25:49.070Z,15.13
2023-04-16T18:28:46.932Z,14.57
2023-04-16T18:31:44.916Z,12.85
2023-04-16T18:34:42.994Z,12.85
2023-04-16T18:37:41.467Z,10.70
2023-04-16T18:40:39.533Z,11.73
2023-04-16T18:43:37.587Z,8.77
2023-04-16T18:46:35.525Z,10.98
2023-04-16T18:49:33.842Z,11.82
2023-04-16T18:52:31.953Z,11.43
2023-04-16T18:55:31.282Z,12.20
2023-04-16T18:58:29.106Z,13.80
2023-04-16T19:01:27.388Z,15.25
2023-04-16T19:04:25.299Z,12.48
2023-04-16T19:07:23.310Z,11.15
2023-04-16T19:10:21.182Z,12.63
2023-04-16T19:13:22.811Z,12.05
2023-04-16T19:16:21.086Z,8.85
2023-04-16T19:19:19.163Z,14.90
2023-04-16T19:22:16.972Z,11.85
2023-04-16T19:25:15.070Z,12.10
2023-04-16T19:28:12.887Z,15.63
2023-04-16T19:31:12.397Z,15.40
2023-04-16T19:34:10.328Z,14.48
2023-04-16T19:37:08.229Z,13.90
2023-04-16T19:40:07.116Z,18.05
2023-04-16T19:43:05.586Z,12.63
2023-04-16T19:46:04.176Z,15.00
2023-04-16T19:49:02.334Z,10.80
2023-04-16T19:52:00.816Z,15.48
2023-04-16T19:54:59.013Z,14.52
2023-04-16T19:57:58.341Z,16.00
2023-04-16T20:00:57.130Z,11.65
2023-04-16T20:03:55.258Z,15.32
2023-04-16T20:06:53.507Z,12.23
2023-04-16T20:09:51.965Z,12.88
2023-04-16T20:12:51.449Z,10.98
2023-04-16T20:15:54.360Z,13.10
2023-04-16T20:18:55.061Z,9.73
2023-04-16T20:21:52.851Z,11.10
2023-04-16T20:24:55.764Z,11.93
2023-04-16T20:27:53.697Z,10.65
2023-04-16T20:30:51.876Z,12.75
2023-04-16T20:33:49.711Z,19.17
2023-04-16T20:36:47.776Z,14.60
2023-04-16T20:39:47.448Z,10.55
2023-04-16T20:42:46.852Z,10.73
2023-04-16T20:45:46.858Z,11.35
2023-04-16T20:48:45.050Z,13.60
2023-04-16T20:51:42.913Z,11.50
2023-04-16T20:54:41.191Z,12.25
2023-04-16T20:57:39.064Z,10.13
2023-04-16T21:00:37.338Z,13.30
2023-04-16T21:03:35.527Z,13.73
2023-04-16T21:06:33.563Z,13.20
2023-04-16T21:09:32.188Z,10.00
2023-04-16T21:12:30.085Z,13.80
2023-04-16T21:15:28.125Z,11.13
2023-04-16T21:18:26.293Z,16.13
2023-04-16T21:21:24.933Z,15.73
2023-04-16T21:24:22.908Z,12.75
2023-04-16T21:27:20.849Z,13.48
2023-04-16T21:30:19.466Z,9.68
2023-04-16T21:33:17.625Z,13.38
2023-04-16T21:36:15.772Z,10.07
2023-04-16T21:39:14.571Z,9.70
2023-04-16T21:42:12.521Z,11.07
2023-04-16T21:45:11.252Z,10.20
2023-04-16T21:48:09.687Z,10.82
2023-04-16T21:51:08.574Z,9.98
2023-04-16T21:54:06.439Z,12.02
2023-04-16T21:57:04.248Z,12.75
2023-04-16T22:00:02.367Z,10.73
2023-04-16T22:03:00.592Z,8.40
2023-04-16T22:06:02.215Z,10.00
2023-04-16T22:09:00.038Z,11.88
2023-04-16T22:11:58.358Z,8.85
2023-04-16T22:15:02.363Z,13.70
2023-04-16T22:18:01.148Z,11.25
2023-04-16T22:20:58.967Z,13.05
2023-04-16T22:23:56.844Z,11.38
2023-04-16T22:26:54.625Z,12.63
2023-04-16T22:29:52.530Z,17.33
2023-04-16T22:32:50.318Z,11.02
2023-04-16T22:35:48.281Z,9.57
2023-04-16T22:38:46.481Z,9.73
2023-04-16T22:41:44.375Z,12.35
2023-04-16T22:44:42.195Z,14.77
2023-04-16T22:47:40.344Z,10.73
2023-04-16T22:50:38.255Z,8.20
2023-04-16T22:53:37.336Z,7.45
2023-04-16T22:56:35.212Z,10.30
2023-04-16T22:59:33.117Z,11.40
2023-04-16T23:02:31.363Z,14.05
2023-04-16T23:05:30.393Z,7.97
2023-04-16T23:08:28.186Z,11.07
2023-04-16T23:11:26.168Z,13.52
2023-04-16T23:14:24.262Z,13.50
2023-04-16T23:17:22.425Z,13.80
2023-04-16T23:20:20.411Z,8.35
2023-04-16T23:23:18.337Z,8.63
2023-04-16T23:26:16.419Z,8.98
2023-04-16T23:29:14.339Z,10.38
2023-04-16T23:32:12.422Z,9.13
2023-04-16T23:35:10.911Z,12.15
2023-04-16T23:38:08.888Z,7.82
2023-04-16T23:41:06.789Z,11.27
2023-04-16T23:44:04.660Z,7.25
2023-04-16T23:47:02.961Z,10.75
2023-04-16T23:50:00.855Z,15.98
2023-04-16T23:52:59.062Z,9.60
2023-04-16T23:55:56.847Z,13.15
2023-04-16T23:58:55.107Z,10.18
